sensor_id;sensor_type;location;lat;lon;timestamp;temperature;humidity
32698;DHT22;19087;51.062;3.754;2022-12-18T09:17:34;-3.70;99.90
32698;DHT22;19087;51.062;3.754;2022-12-18T09:20:00;-3.70;99.90
32698;DHT22;19087;51.062;3.754;2022-12-18T09:22:30;-3.40;99.90
32698;DHT22;19087;51.062;3.754;2022-12-18T09:24:56;-3.20;99.90
32698;DHT22;19087;51.062;3.754;2022-12-18T09:27:22;-2.90;99.90
32698;DHT22;19087;51.062;3.754;2022-12-18T09:29:47;-2.60;99.90
32698;DHT22;19087;51.062;3.754;2022-12-18T09:38:58;-2.30;99.90
32698;DHT22;19087;51.062;3.754;2022-12-18T09:44:27;-2.10;99.90
32698;DHT22;19087;51.062;3.754;2022-12-18T09:49:46;-2.00;99.90
32698;DHT22;19087;51.062;3.754;2022-12-18T09:52:30;-1.90;99.90
32698;DHT22;19087;51.062;3.754;2022-12-18T09:55:05;-1.90;99.90
32698;DHT22;19087;51.062;3.754;2022-12-18T09:57:39;-1.90;99.90
32698;DHT22;19087;51.062;3.754;2022-12-18T10:00:21;-1.80;99.90
32698;DHT22;19087;51.062;3.754;2022-12-18T10:02:47;-1.70;99.90
32698;DHT22;19087;51.062;3.754;2022-12-18T10:05:17;-1.70;99.90
32698;DHT22;19087;51.062;3.754;2022-12-18T10:08:02;-1.60;99.90
32698;DHT22;19087;51.062;3.754;2022-12-18T10:10:46;-1.60;99.90
32698;DHT22;19087;51.062;3.754;2022-12-18T10:21:18;-1.40;99.90
32698;DHT22;19087;51.062;3.754;2022-12-18T10:24:02;-1.30;99.90
32698;DHT22;19087;51.062;3.754;2022-12-18T10:26:35;-1.10;99.90
32698;DHT22;19087;51.062;3.754;2022-12-18T10:29:01;-1.10;99.90
32698;DHT22;19087;51.062;3.754;2022-12-18T10:31:30;-1.00;99.90
32698;DHT22;19087;51.062;3.754;2022-12-18T10:33:57;-1.00;99.90
32698;DHT22;19087;51.062;3.754;2022-12-18T10:36:24;-1.00;99.90
32698;DHT22;19087;51.062;3.754;2022-12-18T10:38:50;-1.10;99.90
32698;DHT22;19087;51.062;3.754;2022-12-18T10:44:20;-0.70;99.90
32698;DHT22;19087;51.062;3.754;2022-12-18T10:46:53;-0.50;99.90
32698;DHT22;19087;51.062;3.754;2022-12-18T10:49:29;-0.50;99.90
32698;DHT22;19087;51.062;3.754;2022-12-18T10:52:19;-0.40;99.90
32698;DHT22;19087;51.062;3.754;2022-12-18T10:54:54;-0.30;99.90
32698;DHT22;19087;51.062;3.754;2022-12-18T10:57:36;-0.40;99.90
32698;DHT22;19087;51.062;3.754;2022-12-18T11:00:38;-0.40;99.90
32698;DHT22;19087;51.062;3.754;2022-12-18T11:03:32;-0.50;99.90
32698;DHT22;19087;51.062;3.754;2022-12-18T11:08:28;-0.10;99.90
32698;DHT22;19087;51.062;3.754;2022-12-18T11:10:54;-0.10;99.90
32698;DHT22;19087;51.062;3.754;2022-12-18T11:13:25;-0.30;99.90
32698;DHT22;19087;51.062;3.754;2022-12-18T11:15:51;-0.30;99.90
32698;DHT22;19087;51.062;3.754;2022-12-18T11:18:20;-0.20;99.90
32698;DHT22;19087;51.062;3.754;2022-12-18T11:21:11;-0.20;99.90
32698;DHT22;19087;51.062;3.754;2022-12-18T11:26:11;-0.10;99.90
32698;DHT22;19087;51.062;3.754;2022-12-18T11:28:52;0.20;99.90
32698;DHT22;19087;51.062;3.754;2022-12-18T11:31:32;0.20;99.90
32698;DHT22;19087;51.062;3.754;2022-12-18T11:34:14;0.30;99.90
32698;DHT22;19087;51.062;3.754;2022-12-18T11:36:46;0.20;99.90
32698;DHT22;19087;51.062;3.754;2022-12-18T11:39:24;0.30;99.90
32698;DHT22;19087;51.062;3.754;2022-12-18T11:42:10;0.50;99.90
32698;DHT22;19087;51.062;3.754;2022-12-18T11:44:54;0.60;99.90
32698;DHT22;19087;51.062;3.754;2022-12-18T11:47:49;0.60;99.90
32698;DHT22;19087;51.062;3.754;2022-12-18T11:50:43;0.50;99.90
32698;DHT22;19087;51.062;3.754;2022-12-18T11:53:04;0.50;99.90
32698;DHT22;19087;51.062;3.754;2022-12-18T12:17:51;0.60;99.90
32698;DHT22;19087;51.062;3.754;2022-12-18T12:20:30;0.70;99.90
32698;DHT22;19087;51.062;3.754;2022-12-18T12:23:18;0.70;99.90
32698;DHT22;19087;51.062;3.754;2022-12-18T12:26:11;0.70;99.90
32698;DHT22;19087;51.062;3.754;2022-12-18T12:29:01;0.60;99.90
32698;DHT22;19087;51.062;3.754;2022-12-18T12:32:20;0.60;99.90
32698;DHT22;19087;51.062;3.754;2022-12-18T12:38:15;0.60;99.90
32698;DHT22;19087;51.062;3.754;2022-12-18T12:41:06;0.70;99.90
32698;DHT22;19087;51.062;3.754;2022-12-18T12:43:57;0.80;99.90
32698;DHT22;19087;51.062;3.754;2022-12-18T12:46:25;0.80;99.90
32698;DHT22;19087;51.062;3.754;2022-12-18T12:48:58;1.10;99.90
32698;DHT22;19087;51.062;3.754;2022-12-18T12:51:35;1.00;99.90
32698;DHT22;19087;51.062;3.754;2022-12-18T12:54:05;0.90;99.90
32698;DHT22;19087;51.062;3.754;2022-12-18T12:56:57;1.00;99.90
32698;DHT22;19087;51.062;3.754;2022-12-18T12:59:39;1.00;99.90
32698;DHT22;19087;51.062;3.754;2022-12-18T13:02:14;1.00;99.90
32698;DHT22;19087;51.062;3.754;2022-12-18T13:04:58;1.00;99.90
32698;DHT22;19087;51.062;3.754;2022-12-18T13:07:37;1.00;99.90
32698;DHT22;19087;51.062;3.754;2022-12-18T13:10:32;1.00;99.90
32698;DHT22;19087;51.062;3.754;2022-12-18T13:13:05;0.80;99.90
32698;DHT22;19087;51.062;3.754;2022-12-18T13:15:44;0.70;99.90
32698;DHT22;19087;51.062;3.754;2022-12-18T13:31:14;0.90;99.90
32698;DHT22;19087;51.062;3.754;2022-12-18T13:33:43;0.90;99.90
32698;DHT22;19087;51.062;3.754;2022-12-18T13:36:30;0.80;99.90
32698;DHT22;19087;51.062;3.754;2022-12-18T13:41:41;0.70;99.90
32698;DHT22;19087;51.062;3.754;2022-12-18T13:44:33;0.70;99.90
32698;DHT22;19087;51.062;3.754;2022-12-18T13:47:01;0.70;99.90
32698;DHT22;19087;51.062;3.754;2022-12-18T13:49:39;0.70;99.90
32698;DHT22;19087;51.062;3.754;2022-12-18T13:52:34;0.70;99.90
32698;DHT22;19087;51.062;3.754;2022-12-18T13:55:06;0.80;99.90
32698;DHT22;19087;51.062;3.754;2022-12-18T13:57:40;0.80;99.90
32698;DHT22;19087;51.062;3.754;2022-12-18T14:02:48;0.80;99.90
32698;DHT22;19087;51.062;3.754;2022-12-18T14:07:52;0.70;99.90
32698;DHT22;19087;51.062;3.754;2022-12-18T14:10:18;0.80;99.90
32698;DHT22;19087;51.062;3.754;2022-12-18T14:12:49;1.00;99.90
32698;DHT22;19087;51.062;3.754;2022-12-18T14:18:19;1.00;99.90
32698;DHT22;19087;51.062;3.754;2022-12-18T14:20:48;1.00;99.90
32698;DHT22;19087;51.062;3.754;2022-12-18T14:23:37;0.90;99.90
32698;DHT22;19087;51.062;3.754;2022-12-18T14:26:25;0.90;99.90
32698;DHT22;19087;51.062;3.754;2022-12-18T14:28:59;0.80;99.90
32698;DHT22;19087;51.062;3.754;2022-12-18T14:31:30;0.80;99.90
32698;DHT22;19087;51.062;3.754;2022-12-18T14:33:58;0.80;99.90
32698;DHT22;19087;51.062;3.754;2022-12-18T14:36:29;0.90;99.90
32698;DHT22;19087;51.062;3.754;2022-12-18T14:38:59;0.90;99.90
32698;DHT22;19087;51.062;3.754;2022-12-18T14:41:27;0.90;99.90
32698;DHT22;19087;51.062;3.754;2022-12-18T14:44:04;1.00;99.90
32698;DHT22;19087;51.062;3.754;2022-12-18T14:46:37;1.00;99.90
32698;DHT22;19087;51.062;3.754;2022-12-18T14:51:53;1.00;99.90
32698;DHT22;19087;51.062;3.754;2022-12-18T14:54:21;0.80;99.90
32698;DHT22;19087;51.062;3.754;2022-12-18T14:57:03;0.90;99.90
32698;DHT22;19087;51.062;3.754;2022-12-18T14:59:30;0.90;99.90
32698;DHT22;19087;51.062;3.754;2022-12-18T15:04:32;1.10;99.90
32698;DHT22;19087;51.062;3.754;2022-12-18T15:07:21;1.10;99.90
32698;DHT22;19087;51.062;3.754;2022-12-18T15:10:14;1.10;99.90
32698;DHT22;19087;51.062;3.754;2022-12-18T15:12:45;1.10;99.90
32698;DHT22;19087;51.062;3.754;2022-12-18T15:18:11;1.00;99.90
32698;DHT22;19087;51.062;3.754;2022-12-18T15:23:24;0.90;99.90
32698;DHT22;19087;51.062;3.754;2022-12-18T15:26:02;1.00;99.90
32698;DHT22;19087;51.062;3.754;2022-12-18T15:28:38;1.00;99.90
32698;DHT22;19087;51.062;3.754;2022-12-18T15:33:36;1.00;99.90
32698;DHT22;19087;51.062;3.754;2022-12-18T15:36:13;1.20;99.90
32698;DHT22;19087;51.062;3.754;2022-12-18T15:38:40;1.10;99.90
32698;DHT22;19087;51.062;3.754;2022-12-18T15:41:18;1.00;99.90
32698;DHT22;19087;51.062;3.754;2022-12-18T15:43:46;1.20;99.90
32698;DHT22;19087;51.062;3.754;2022-12-18T15:46:21;1.20;99.90
32698;DHT22;19087;51.062;3.754;2022-12-18T15:48:55;1.20;99.90
32698;DHT22;19087;51.062;3.754;2022-12-18T15:51:27;1.20;99.90
32698;DHT22;19087;51.062;3.754;2022-12-18T15:54:04;1.20;99.90
32698;DHT22;19087;51.062;3.754;2022-12-18T15:59:20;1.30;99.90
32698;DHT22;19087;51.062;3.754;2022-12-18T16:01:51;1.40;99.90
32698;DHT22;19087;51.062;3.754;2022-12-18T16:04:32;1.40;99.90
32698;DHT22;19087;51.062;3.754;2022-12-18T16:07:01;1.40;99.90
32698;DHT22;19087;51.062;3.754;2022-12-18T16:09:31;1.40;99.90
32698;DHT22;19087;51.062;3.754;2022-12-18T16:11:59;1.30;99.90
32698;DHT22;19087;51.062;3.754;2022-12-18T16:14:35;1.40;99.90
32698;DHT22;19087;51.062;3.754;2022-12-18T16:17:05;1.40;99.90
32698;DHT22;19087;51.062;3.754;2022-12-18T16:19:38;1.40;99.90
32698;DHT22;19087;51.062;3.754;2022-12-18T16:22:18;1.40;99.90
32698;DHT22;19087;51.062;3.754;2022-12-18T16:24:50;1.60;99.90
32698;DHT22;19087;51.062;3.754;2022-12-18T16:27:24;1.50;99.90
32698;DHT22;19087;51.062;3.754;2022-12-18T16:30:06;1.50;99.90
32698;DHT22;19087;51.062;3.754;2022-12-18T16:32:32;1.40;99.90
32698;DHT22;19087;51.062;3.754;2022-12-18T16:35:00;1.50;99.90
32698;DHT22;19087;51.062;3.754;2022-12-18T16:37:25;1.60;99.90
32698;DHT22;19087;51.062;3.754;2022-12-18T16:39:52;1.60;99.90
32698;DHT22;19087;51.062;3.754;2022-12-18T16:42:19;1.60;99.90
32698;DHT22;19087;51.062;3.754;2022-12-18T16:44:50;1.60;99.90
32698;DHT22;19087;51.062;3.754;2022-12-18T16:47:26;1.50;99.90
32698;DHT22;19087;51.062;3.754;2022-12-18T16:49:59;1.50;99.90
32698;DHT22;19087;51.062;3.754;2022-12-18T16:53:01;1.70;99.90
32698;DHT22;19087;51.062;3.754;2022-12-18T16:55:29;1.70;99.90
32698;DHT22;19087;51.062;3.754;2022-12-18T16:58:05;1.70;99.90
32698;DHT22;19087;51.062;3.754;2022-12-18T17:00:42;1.70;99.90
32698;DHT22;19087;51.062;3.754;2022-12-18T17:03:10;1.60;99.90
32698;DHT22;19087;51.062;3.754;2022-12-18T17:05:40;1.70;99.90
32698;DHT22;19087;51.062;3.754;2022-12-18T17:08:15;1.70;99.90
32698;DHT22;19087;51.062;3.754;2022-12-18T17:11:06;1.70;99.90
32698;DHT22;19087;51.062;3.754;2022-12-18T17:13:42;1.60;99.90
32698;DHT22;19087;51.062;3.754;2022-12-18T17:16:10;1.50;99.90
32698;DHT22;19087;51.062;3.754;2022-12-18T17:18:38;1.50;99.90
32698;DHT22;19087;51.062;3.754;2022-12-18T17:21:05;1.70;99.90
32698;DHT22;19087;51.062;3.754;2022-12-18T17:23:41;1.70;99.90
32698;DHT22;19087;51.062;3.754;2022-12-18T17:26:28;1.80;99.90
32698;DHT22;19087;51.062;3.754;2022-12-18T17:29:00;1.70;99.90
32698;DHT22;19087;51.062;3.754;2022-12-18T17:31:45;1.70;99.90
32698;DHT22;19087;51.062;3.754;2022-12-18T17:34:16;1.60;99.90
32698;DHT22;19087;51.062;3.754;2022-12-18T17:36:46;1.80;99.90
32698;DHT22;19087;51.062;3.754;2022-12-18T17:39:37;1.80;99.90
32698;DHT22;19087;51.062;3.754;2022-12-18T17:42:46;1.70;99.90
32698;DHT22;19087;51.062;3.754;2022-12-18T17:45:16;1.70;99.90
32698;DHT22;19087;51.062;3.754;2022-12-18T17:47:47;1.70;99.90
32698;DHT22;19087;51.062;3.754;2022-12-18T17:50:15;1.70;99.90
32698;DHT22;19087;51.062;3.754;2022-12-18T17:52:41;1.70;99.90
32698;DHT22;19087;51.062;3.754;2022-12-18T17:55:12;1.80;99.90
32698;DHT22;19087;51.062;3.754;2022-12-18T17:57:39;1.80;99.90
32698;DHT22;19087;51.062;3.754;2022-12-18T18:00:09;1.80;99.90
32698;DHT22;19087;51.062;3.754;2022-12-18T18:02:41;1.80;99.90
32698;DHT22;19087;51.062;3.754;2022-12-18T18:05:22;1.80;99.90
32698;DHT22;19087;51.062;3.754;2022-12-18T18:07:56;1.70;99.90
32698;DHT22;19087;51.062;3.754;2022-12-18T18:10:31;1.70;99.90
32698;DHT22;19087;51.062;3.754;2022-12-18T18:13:20;1.70;99.90
32698;DHT22;19087;51.062;3.754;2022-12-18T18:18:45;1.70;99.90
32698;DHT22;19087;51.062;3.754;2022-12-18T18:21:42;1.60;99.90
32698;DHT22;19087;51.062;3.754;2022-12-18T18:24:44;1.60;99.90
32698;DHT22;19087;51.062;3.754;2022-12-18T18:27:17;1.60;99.90
32698;DHT22;19087;51.062;3.754;2022-12-18T18:29:57;1.60;99.90
32698;DHT22;19087;51.062;3.754;2022-12-18T18:32:41;1.40;99.90
32698;DHT22;19087;51.062;3.754;2022-12-18T18:35:40;1.30;99.90
32698;DHT22;19087;51.062;3.754;2022-12-18T18:38:18;1.40;99.90
32698;DHT22;19087;51.062;3.754;2022-12-18T18:44:18;1.40;99.90
32698;DHT22;19087;51.062;3.754;2022-12-18T19:05:22;1.60;99.90
32698;DHT22;19087;51.062;3.754;2022-12-18T19:08:30;1.60;99.90
32698;DHT22;19087;51.062;3.754;2022-12-18T19:11:52;1.70;99.90
32698;DHT22;19087;51.062;3.754;2022-12-18T19:14:37;1.70;99.90
32698;DHT22;19087;51.062;3.754;2022-12-18T19:17:15;1.70;99.90
32698;DHT22;19087;51.062;3.754;2022-12-18T19:19:59;1.70;99.90
32698;DHT22;19087;51.062;3.754;2022-12-18T19:22:47;1.70;99.90
32698;DHT22;19087;51.062;3.754;2022-12-18T19:25:38;1.60;99.90
32698;DHT22;19087;51.062;3.754;2022-12-18T19:28:33;1.70;99.90
32698;DHT22;19087;51.062;3.754;2022-12-18T19:31:06;1.70;99.90
32698;DHT22;19087;51.062;3.754;2022-12-18T19:33:48;1.70;99.90
32698;DHT22;19087;51.062;3.754;2022-12-18T19:36:29;1.80;99.90
32698;DHT22;19087;51.062;3.754;2022-12-18T19:38:59;1.80;99.90
32698;DHT22;19087;51.062;3.754;2022-12-18T19:41:28;1.80;99.90
32698;DHT22;19087;51.062;3.754;2022-12-18T19:44:19;1.80;99.90
32698;DHT22;19087;51.062;3.754;2022-12-18T19:47:15;1.90;99.90
32698;DHT22;19087;51.062;3.754;2022-12-18T19:49:43;1.80;99.90
32698;DHT22;19087;51.062;3.754;2022-12-18T19:52:09;1.80;99.90
32698;DHT22;19087;51.062;3.754;2022-12-18T19:54:36;1.90;99.90
32698;DHT22;19087;51.062;3.754;2022-12-18T19:57:06;1.80;99.90
32698;DHT22;19087;51.062;3.754;2022-12-18T20:00:16;1.80;99.90
32698;DHT22;19087;51.062;3.754;2022-12-18T20:03:24;1.90;99.90
32698;DHT22;19087;51.062;3.754;2022-12-18T20:09:08;1.90;99.90
32698;DHT22;19087;51.062;3.754;2022-12-18T20:11:34;1.90;99.90
32698;DHT22;19087;51.062;3.754;2022-12-18T20:14:11;2.10;99.90
32698;DHT22;19087;51.062;3.754;2022-12-18T20:16:51;2.00;99.90
32698;DHT22;19087;51.062;3.754;2022-12-18T20:19:18;2.00;99.90
32698;DHT22;19087;51.062;3.754;2022-12-18T20:21:48;2.00;99.90
32698;DHT22;19087;51.062;3.754;2022-12-18T20:24:16;2.10;99.90
32698;DHT22;19087;51.062;3.754;2022-12-18T20:27:06;2.00;99.90
32698;DHT22;19087;51.062;3.754;2022-12-18T20:29:47;2.20;99.90
32698;DHT22;19087;51.062;3.754;2022-12-18T20:32:31;2.20;99.90
32698;DHT22;19087;51.062;3.754;2022-12-18T20:35:14;2.30;99.90
32698;DHT22;19087;51.062;3.754;2022-12-18T20:38:04;2.30;99.90
32698;DHT22;19087;51.062;3.754;2022-12-18T20:40:44;2.40;99.90
32698;DHT22;19087;51.062;3.754;2022-12-18T20:43:23;2.40;99.90
32698;DHT22;19087;51.062;3.754;2022-12-18T20:45:50;2.40;99.90
32698;DHT22;19087;51.062;3.754;2022-12-18T20:48:19;2.40;99.90
32698;DHT22;19087;51.062;3.754;2022-12-18T20:51:07;2.50;99.90
32698;DHT22;19087;51.062;3.754;2022-12-18T20:53:55;2.50;99.90
32698;DHT22;19087;51.062;3.754;2022-12-18T20:56:42;2.60;99.90
32698;DHT22;19087;51.062;3.754;2022-12-18T20:59:29;2.50;99.90
32698;DHT22;19087;51.062;3.754;2022-12-18T21:02:21;2.50;99.90
32698;DHT22;19087;51.062;3.754;2022-12-18T21:10:26;2.70;99.90
32698;DHT22;19087;51.062;3.754;2022-12-18T21:13:20;2.70;99.90
32698;DHT22;19087;51.062;3.754;2022-12-18T21:16:33;2.80;99.90
32698;DHT22;19087;51.062;3.754;2022-12-18T21:19:00;2.70;99.90
32698;DHT22;19087;51.062;3.754;2022-12-18T21:21:48;2.80;99.90
32698;DHT22;19087;51.062;3.754;2022-12-18T21:24:27;2.80;99.90
32698;DHT22;19087;51.062;3.754;2022-12-18T21:28:00;2.70;99.90
32698;DHT22;19087;51.062;3.754;2022-12-18T21:31:05;2.90;99.90
32698;DHT22;19087;51.062;3.754;2022-12-18T21:33:45;2.90;99.90
32698;DHT22;19087;51.062;3.754;2022-12-18T21:36:24;2.90;99.90
32698;DHT22;19087;51.062;3.754;2022-12-18T21:39:18;2.80;99.90
32698;DHT22;19087;51.062;3.754;2022-12-18T21:42:17;2.80;99.90
32698;DHT22;19087;51.062;3.754;2022-12-18T21:45:26;3.00;99.90
32698;DHT22;19087;51.062;3.754;2022-12-18T21:48:18;2.90;99.90
32698;DHT22;19087;51.062;3.754;2022-12-18T21:50:52;3.00;99.90
32698;DHT22;19087;51.062;3.754;2022-12-18T21:53:27;3.00;99.90
32698;DHT22;19087;51.062;3.754;2022-12-18T21:56:19;3.10;99.90
32698;DHT22;19087;51.062;3.754;2022-12-18T21:59:04;3.00;99.90
32698;DHT22;19087;51.062;3.754;2022-12-18T22:01:52;3.00;99.90
32698;DHT22;19087;51.062;3.754;2022-12-18T22:05:30;3.10;99.90
32698;DHT22;19087;51.062;3.754;2022-12-18T22:08:29;3.10;99.90
32698;DHT22;19087;51.062;3.754;2022-12-18T22:11:15;3.10;99.90
